Bauer, Utah
Current Conditions -  °F | °C
As of 12:59 PM on Thursday 30 Oct 2014 (Local Time) from KPVU Reporting Station
Clear Clear  
Wind Chill: 55°   Ceiling: Unl
Heat Index: 55°   Visibility: 15mi
Dew Point: 30°   Wind: 0mph
Humidity: 38%   Direction: NA
Pressure: 30.26"   Gusts: NA
Location:  40.2688°N, 112.37°W
Report Text: KPVU 301859Z 00000KT 15SM SKC 13/M01 A3026
Loading
Personal Weather Stations






























Interactive Weather Map
Tropical Storm Tracking
New forecast layout! Learn more

10-Day Weather Forecast

Advertisements
Track Severe Weather on mobile